sensor_id;sensor_type;location;lat;lon;timestamp;P1;durP1;ratioP1;P2;durP2;ratioP2
32445;SDS011;18899;50.748;7.102;2023-05-13T00:02:12;12.63;;;6.75;;
32445;SDS011;18899;50.748;7.102;2023-05-13T00:04:37;13.93;;;6.47;;
32445;SDS011;18899;50.748;7.102;2023-05-13T00:07:03;9.75;;;6.65;;
32445;SDS011;18899;50.748;7.102;2023-05-13T00:09:29;11.73;;;6.88;;
32445;SDS011;18899;50.748;7.102;2023-05-13T00:11:54;11.65;;;6.45;;
32445;SDS011;18899;50.748;7.102;2023-05-13T00:14:20;11.75;;;7.07;;
32445;SDS011;18899;50.748;7.102;2023-05-13T00:16:45;16.00;;;7.35;;
32445;SDS011;18899;50.748;7.102;2023-05-13T00:19:11;13.48;;;7.82;;
32445;SDS011;18899;50.748;7.102;2023-05-13T00:21:37;11.10;;;6.53;;
32445;SDS011;18899;50.748;7.102;2023-05-13T00:24:03;14.32;;;7.25;;
32445;SDS011;18899;50.748;7.102;2023-05-13T00:26:29;13.55;;;7.70;;
32445;SDS011;18899;50.748;7.102;2023-05-13T00:28:54;13.30;;;7.82;;
32445;SDS011;18899;50.748;7.102;2023-05-13T00:31:20;11.05;;;7.40;;
32445;SDS011;18899;50.748;7.102;2023-05-13T00:33:45;15.13;;;7.07;;
32445;SDS011;18899;50.748;7.102;2023-05-13T00:36:11;12.25;;;7.30;;
32445;SDS011;18899;50.748;7.102;2023-05-13T00:38:37;14.05;;;7.47;;
32445;SDS011;18899;50.748;7.102;2023-05-13T00:41:02;14.40;;;8.27;;
32445;SDS011;18899;50.748;7.102;2023-05-13T00:43:28;15.85;;;7.75;;
32445;SDS011;18899;50.748;7.102;2023-05-13T00:45:54;12.63;;;6.80;;
32445;SDS011;18899;50.748;7.102;2023-05-13T00:48:20;10.02;;;6.53;;
32445;SDS011;18899;50.748;7.102;2023-05-13T00:50:46;16.42;;;7.43;;
32445;SDS011;18899;50.748;7.102;2023-05-13T00:53:12;11.98;;;7.75;;
32445;SDS011;18899;50.748;7.102;2023-05-13T00:55:42;12.35;;;7.50;;
32445;SDS011;18899;50.748;7.102;2023-05-13T00:58:08;11.25;;;7.00;;
32445;SDS011;18899;50.748;7.102;2023-05-13T01:06:06;11.35;;;6.82;;
32445;SDS011;18899;50.748;7.102;2023-05-13T01:11:08;18.80;;;7.38;;
32445;SDS011;18899;50.748;7.102;2023-05-13T01:13:45;12.93;;;7.68;;
32445;SDS011;18899;50.748;7.102;2023-05-13T01:18:55;14.07;;;7.72;;
32445;SDS011;18899;50.748;7.102;2023-05-13T01:21:25;14.93;;;7.82;;
32445;SDS011;18899;50.748;7.102;2023-05-13T01:23:51;13.20;;;7.15;;
32445;SDS011;18899;50.748;7.102;2023-05-13T01:26:17;12.40;;;7.63;;
32445;SDS011;18899;50.748;7.102;2023-05-13T01:28:43;10.90;;;6.57;;
32445;SDS011;18899;50.748;7.102;2023-05-13T01:31:09;11.00;;;7.07;;
32445;SDS011;18899;50.748;7.102;2023-05-13T01:33:36;12.00;;;6.78;;
32445;SDS011;18899;50.748;7.102;2023-05-13T01:36:02;13.65;;;7.25;;
32445;SDS011;18899;50.748;7.102;2023-05-13T01:38:29;9.25;;;7.22;;
32445;SDS011;18899;50.748;7.102;2023-05-13T01:40:56;13.80;;;7.55;;
32445;SDS011;18899;50.748;7.102;2023-05-13T01:43:23;17.05;;;7.75;;
32445;SDS011;18899;50.748;7.102;2023-05-13T01:45:48;11.88;;;7.72;;
32445;SDS011;18899;50.748;7.102;2023-05-13T01:48:14;12.68;;;7.60;;
32445;SDS011;18899;50.748;7.102;2023-05-13T01:50:40;13.63;;;8.27;;
32445;SDS011;18899;50.748;7.102;2023-05-13T01:53:06;13.38;;;7.75;;
32445;SDS011;18899;50.748;7.102;2023-05-13T01:55:31;13.93;;;8.23;;
32445;SDS011;18899;50.748;7.102;2023-05-13T01:57:57;15.27;;;8.15;;
32445;SDS011;18899;50.748;7.102;2023-05-13T02:00:22;11.68;;;7.75;;
32445;SDS011;18899;50.748;7.102;2023-05-13T02:02:48;12.45;;;7.95;;
32445;SDS011;18899;50.748;7.102;2023-05-13T02:05:13;21.45;;;8.32;;
32445;SDS011;18899;50.748;7.102;2023-05-13T02:07:39;15.77;;;7.80;;
32445;SDS011;18899;50.748;7.102;2023-05-13T02:10:05;14.73;;;8.25;;
32445;SDS011;18899;50.748;7.102;2023-05-13T02:12:31;11.02;;;7.53;;
32445;SDS011;18899;50.748;7.102;2023-05-13T02:14:56;10.30;;;7.43;;
32445;SDS011;18899;50.748;7.102;2023-05-13T02:17:22;13.35;;;7.88;;
32445;SDS011;18899;50.748;7.102;2023-05-13T02:19:47;13.25;;;7.75;;
32445;SDS011;18899;50.748;7.102;2023-05-13T02:22:13;12.75;;;7.75;;
32445;SDS011;18899;50.748;7.102;2023-05-13T02:24:38;12.93;;;7.55;;
32445;SDS011;18899;50.748;7.102;2023-05-13T02:27:05;11.40;;;7.63;;
32445;SDS011;18899;50.748;7.102;2023-05-13T02:29:32;13.45;;;7.68;;
32445;SDS011;18899;50.748;7.102;2023-05-13T02:31:58;14.30;;;8.73;;
32445;SDS011;18899;50.748;7.102;2023-05-13T02:34:24;11.55;;;7.55;;
32445;SDS011;18899;50.748;7.102;2023-05-13T02:36:49;17.00;;;9.15;;
32445;SDS011;18899;50.748;7.102;2023-05-13T02:39:16;14.43;;;7.95;;
32445;SDS011;18899;50.748;7.102;2023-05-13T02:41:42;11.48;;;7.78;;
32445;SDS011;18899;50.748;7.102;2023-05-13T02:44:08;17.05;;;7.75;;
32445;SDS011;18899;50.748;7.102;2023-05-13T02:46:34;11.73;;;8.30;;
32445;SDS011;18899;50.748;7.102;2023-05-13T02:49:00;10.45;;;7.80;;
32445;SDS011;18899;50.748;7.102;2023-05-13T02:51:26;13.23;;;8.15;;
32445;SDS011;18899;50.748;7.102;2023-05-13T02:53:51;15.25;;;9.02;;
32445;SDS011;18899;50.748;7.102;2023-05-13T02:56:17;18.30;;;10.57;;
32445;SDS011;18899;50.748;7.102;2023-05-13T02:58:43;22.17;;;9.95;;
32445;SDS011;18899;50.748;7.102;2023-05-13T03:01:08;18.77;;;10.82;;
32445;SDS011;18899;50.748;7.102;2023-05-13T03:03:34;18.75;;;10.20;;
32445;SDS011;18899;50.748;7.102;2023-05-13T03:06:00;21.38;;;11.00;;
32445;SDS011;18899;50.748;7.102;2023-05-13T03:08:26;18.25;;;11.52;;
32445;SDS011;18899;50.748;7.102;2023-05-13T03:10:51;17.65;;;11.57;;
32445;SDS011;18899;50.748;7.102;2023-05-13T03:13:17;20.10;;;11.38;;
32445;SDS011;18899;50.748;7.102;2023-05-13T03:15:42;20.23;;;12.13;;
32445;SDS011;18899;50.748;7.102;2023-05-13T03:18:08;23.95;;;11.82;;
32445;SDS011;18899;50.748;7.102;2023-05-13T03:20:33;24.27;;;13.18;;
32445;SDS011;18899;50.748;7.102;2023-05-13T03:22:59;22.20;;;12.07;;
32445;SDS011;18899;50.748;7.102;2023-05-13T03:25:24;20.73;;;13.40;;
32445;SDS011;18899;50.748;7.102;2023-05-13T03:27:50;24.98;;;14.07;;
32445;SDS011;18899;50.748;7.102;2023-05-13T03:30:15;34.72;;;14.35;;
32445;SDS011;18899;50.748;7.102;2023-05-13T03:32:41;25.50;;;14.45;;
32445;SDS011;18899;50.748;7.102;2023-05-13T03:35:07;32.85;;;16.58;;
32445;SDS011;18899;50.748;7.102;2023-05-13T03:37:32;28.83;;;15.43;;
32445;SDS011;18899;50.748;7.102;2023-05-13T03:39:58;28.73;;;15.90;;
32445;SDS011;18899;50.748;7.102;2023-05-13T03:42:24;45.75;;;16.85;;
32445;SDS011;18899;50.748;7.102;2023-05-13T03:44:50;33.70;;;16.60;;
32445;SDS011;18899;50.748;7.102;2023-05-13T03:47:15;37.47;;;17.15;;
32445;SDS011;18899;50.748;7.102;2023-05-13T03:49:41;31.88;;;16.92;;
32445;SDS011;18899;50.748;7.102;2023-05-13T03:52:07;27.98;;;15.85;;
32445;SDS011;18899;50.748;7.102;2023-05-13T03:54:32;31.70;;;17.20;;
32445;SDS011;18899;50.748;7.102;2023-05-13T03:56:58;28.63;;;14.95;;
32445;SDS011;18899;50.748;7.102;2023-05-13T03:59:24;29.60;;;15.30;;
32445;SDS011;18899;50.748;7.102;2023-05-13T04:01:49;30.42;;;16.08;;
32445;SDS011;18899;50.748;7.102;2023-05-13T04:04:15;32.35;;;15.40;;
32445;SDS011;18899;50.748;7.102;2023-05-13T04:06:41;26.85;;;14.27;;
32445;SDS011;18899;50.748;7.102;2023-05-13T04:09:06;30.08;;;14.88;;
32445;SDS011;18899;50.748;7.102;2023-05-13T04:11:32;27.30;;;15.02;;
32445;SDS011;18899;50.748;7.102;2023-05-13T04:13:57;27.55;;;14.48;;
32445;SDS011;18899;50.748;7.102;2023-05-13T04:16:23;25.40;;;14.25;;
32445;SDS011;18899;50.748;7.102;2023-05-13T04:18:49;27.00;;;14.20;;
32445;SDS011;18899;50.748;7.102;2023-05-13T04:21:15;27.10;;;14.70;;
32445;SDS011;18899;50.748;7.102;2023-05-13T04:23:40;29.33;;;14.35;;
32445;SDS011;18899;50.748;7.102;2023-05-13T04:26:06;24.77;;;14.43;;
32445;SDS011;18899;50.748;7.102;2023-05-13T04:28:32;25.40;;;13.68;;
32445;SDS011;18899;50.748;7.102;2023-05-13T04:30:58;24.73;;;13.95;;
32445;SDS011;18899;50.748;7.102;2023-05-13T04:33:24;21.27;;;12.70;;
32445;SDS011;18899;50.748;7.102;2023-05-13T04:35:50;25.08;;;13.75;;
32445;SDS011;18899;50.748;7.102;2023-05-13T04:38:16;27.30;;;13.55;;
32445;SDS011;18899;50.748;7.102;2023-05-13T04:40:42;25.00;;;12.98;;
32445;SDS011;18899;50.748;7.102;2023-05-13T04:43:09;20.90;;;12.95;;
32445;SDS011;18899;50.748;7.102;2023-05-13T04:45:35;23.23;;;13.05;;
32445;SDS011;18899;50.748;7.102;2023-05-13T04:48:02;22.90;;;12.93;;
32445;SDS011;18899;50.748;7.102;2023-05-13T04:50:27;24.13;;;13.00;;
32445;SDS011;18899;50.748;7.102;2023-05-13T04:52:53;20.52;;;13.00;;
32445;SDS011;18899;50.748;7.102;2023-05-13T04:55:20;22.25;;;12.93;;
32445;SDS011;18899;50.748;7.102;2023-05-13T04:57:46;19.10;;;13.32;;
32445;SDS011;18899;50.748;7.102;2023-05-13T05:00:11;26.50;;;13.85;;
32445;SDS011;18899;50.748;7.102;2023-05-13T05:02:37;24.02;;;14.57;;
32445;SDS011;18899;50.748;7.102;2023-05-13T05:05:03;19.17;;;12.00;;
32445;SDS011;18899;50.748;7.102;2023-05-13T05:07:29;18.30;;;11.18;;
32445;SDS011;18899;50.748;7.102;2023-05-13T05:09:54;18.67;;;11.63;;
32445;SDS011;18899;50.748;7.102;2023-05-13T05:12:20;22.48;;;11.45;;
32445;SDS011;18899;50.748;7.102;2023-05-13T05:14:45;15.35;;;10.43;;
32445;SDS011;18899;50.748;7.102;2023-05-13T05:17:11;14.70;;;9.65;;
32445;SDS011;18899;50.748;7.102;2023-05-13T05:19:37;15.00;;;8.88;;
32445;SDS011;18899;50.748;7.102;2023-05-13T05:22:02;12.10;;;8.25;;
32445;SDS011;18899;50.748;7.102;2023-05-13T05:24:28;13.18;;;8.05;;
32445;SDS011;18899;50.748;7.102;2023-05-13T05:26:53;12.93;;;7.93;;
32445;SDS011;18899;50.748;7.102;2023-05-13T05:29:19;13.38;;;8.48;;
32445;SDS011;18899;50.748;7.102;2023-05-13T05:31:45;14.52;;;8.98;;
32445;SDS011;18899;50.748;7.102;2023-05-13T05:34:11;16.08;;;10.15;;
32445;SDS011;18899;50.748;7.102;2023-05-13T05:36:36;14.93;;;9.95;;
32445;SDS011;18899;50.748;7.102;2023-05-13T05:39:02;18.65;;;10.30;;
32445;SDS011;18899;50.748;7.102;2023-05-13T05:41:27;14.77;;;9.02;;
32445;SDS011;18899;50.748;7.102;2023-05-13T05:43:53;13.65;;;9.50;;
32445;SDS011;18899;50.748;7.102;2023-05-13T05:46:19;14.15;;;8.65;;
32445;SDS011;18899;50.748;7.102;2023-05-13T05:48:44;12.38;;;8.20;;
32445;SDS011;18899;50.748;7.102;2023-05-13T05:51:10;12.82;;;8.57;;
32445;SDS011;18899;50.748;7.102;2023-05-13T05:53:35;12.82;;;9.00;;
32445;SDS011;18899;50.748;7.102;2023-05-13T05:56:05;17.95;;;8.43;;
32445;SDS011;18899;50.748;7.102;2023-05-13T05:58:30;11.73;;;7.95;;
32445;SDS011;18899;50.748;7.102;2023-05-13T06:00:56;12.38;;;7.65;;
32445;SDS011;18899;50.748;7.102;2023-05-13T06:03:22;12.48;;;6.85;;
32445;SDS011;18899;50.748;7.102;2023-05-13T06:05:48;14.00;;;7.40;;
32445;SDS011;18899;50.748;7.102;2023-05-13T06:08:13;18.02;;;7.50;;
32445;SDS011;18899;50.748;7.102;2023-05-13T06:10:39;15.07;;;7.47;;
32445;SDS011;18899;50.748;7.102;2023-05-13T06:13:05;10.95;;;7.13;;
32445;SDS011;18899;50.748;7.102;2023-05-13T06:15:30;12.55;;;7.45;;
32445;SDS011;18899;50.748;7.102;2023-05-13T06:17:56;10.18;;;6.50;;
32445;SDS011;18899;50.748;7.102;2023-05-13T06:20:22;12.65;;;7.07;;
32445;SDS011;18899;50.748;7.102;2023-05-13T06:22:47;13.25;;;7.38;;
32445;SDS011;18899;50.748;7.102;2023-05-13T06:25:13;11.68;;;7.18;;
32445;SDS011;18899;50.748;7.102;2023-05-13T06:27:38;10.25;;;6.38;;
32445;SDS011;18899;50.748;7.102;2023-05-13T06:30:04;11.77;;;6.78;;
32445;SDS011;18899;50.748;7.102;2023-05-13T06:32:30;10.25;;;6.53;;
32445;SDS011;18899;50.748;7.102;2023-05-13T06:34:56;11.32;;;7.30;;
32445;SDS011;18899;50.748;7.102;2023-05-13T06:37:22;11.45;;;6.80;;
32445;SDS011;18899;50.748;7.102;2023-05-13T06:39:47;12.43;;;7.95;;
32445;SDS011;18899;50.748;7.102;2023-05-13T06:42:13;10.15;;;7.15;;
32445;SDS011;18899;50.748;7.102;2023-05-13T06:44:38;15.27;;;7.70;;
32445;SDS011;18899;50.748;7.102;2023-05-13T06:47:04;9.93;;;7.10;;
32445;SDS011;18899;50.748;7.102;2023-05-13T06:49:33;16.63;;;8.25;;
32445;SDS011;18899;50.748;7.102;2023-05-13T06:51:58;13.82;;;7.40;;
32445;SDS011;18899;50.748;7.102;2023-05-13T06:54:24;11.85;;;7.93;;
32445;SDS011;18899;50.748;7.102;2023-05-13T06:56:52;16.65;;;8.52;;
32445;SDS011;18899;50.748;7.102;2023-05-13T06:59:18;12.93;;;8.30;;
32445;SDS011;18899;50.748;7.102;2023-05-13T07:01:45;19.27;;;10.27;;
32445;SDS011;18899;50.748;7.102;2023-05-13T07:04:11;16.33;;;10.00;;
32445;SDS011;18899;50.748;7.102;2023-05-13T07:06:36;18.92;;;10.77;;
32445;SDS011;18899;50.748;7.102;2023-05-13T07:09:02;18.02;;;11.07;;
32445;SDS011;18899;50.748;7.102;2023-05-13T07:11:28;16.40;;;10.63;;
32445;SDS011;18899;50.748;7.102;2023-05-13T07:13:53;15.77;;;10.52;;
32445;SDS011;18899;50.748;7.102;2023-05-13T07:16:19;15.20;;;9.60;;
32445;SDS011;18899;50.748;7.102;2023-05-13T07:18:45;15.82;;;10.55;;
32445;SDS011;18899;50.748;7.102;2023-05-13T07:21:11;16.70;;;11.60;;
32445;SDS011;18899;50.748;7.102;2023-05-13T07:23:40;16.17;;;11.17;;
32445;SDS011;18899;50.748;7.102;2023-05-13T07:26:06;17.35;;;12.13;;
32445;SDS011;18899;50.748;7.102;2023-05-13T07:28:31;20.23;;;11.30;;
32445;SDS011;18899;50.748;7.102;2023-05-13T07:30:57;16.42;;;10.52;;
32445;SDS011;18899;50.748;7.102;2023-05-13T07:33:23;23.95;;;12.20;;
32445;SDS011;18899;50.748;7.102;2023-05-13T07:35:48;19.42;;;12.52;;
32445;SDS011;18899;50.748;7.102;2023-05-13T07:38:14;19.35;;;11.82;;
32445;SDS011;18899;50.748;7.102;2023-05-13T07:40:39;15.93;;;11.20;;
32445;SDS011;18899;50.748;7.102;2023-05-13T07:43:05;16.92;;;11.45;;
32445;SDS011;18899;50.748;7.102;2023-05-13T07:45:31;18.77;;;11.07;;
32445;SDS011;18899;50.748;7.102;2023-05-13T07:47:56;20.33;;;11.10;;
32445;SDS011;18899;50.748;7.102;2023-05-13T07:50:22;20.65;;;11.07;;
32445;SDS011;18899;50.748;7.102;2023-05-13T07:52:47;14.20;;;9.82;;
32445;SDS011;18899;50.748;7.102;2023-05-13T07:55:14;13.90;;;8.95;;
32445;SDS011;18899;50.748;7.102;2023-05-13T07:57:40;13.18;;;8.68;;
32445;SDS011;18899;50.748;7.102;2023-05-13T08:00:06;15.85;;;8.75;;
32445;SDS011;18899;50.748;7.102;2023-05-13T08:02:32;16.15;;;8.90;;
32445;SDS011;18899;50.748;7.102;2023-05-13T08:04:59;15.98;;;9.48;;
32445;SDS011;18899;50.748;7.102;2023-05-13T08:07:25;12.85;;;9.00;;
32445;SDS011;18899;50.748;7.102;2023-05-13T08:09:50;13.75;;;8.90;;
32445;SDS011;18899;50.748;7.102;2023-05-13T08:12:16;15.25;;;9.00;;
32445;SDS011;18899;50.748;7.102;2023-05-13T08:14:41;13.65;;;8.43;;
32445;SDS011;18899;50.748;7.102;2023-05-13T08:17:07;12.23;;;8.45;;
32445;SDS011;18899;50.748;7.102;2023-05-13T08:19:32;11.93;;;7.93;;
32445;SDS011;18899;50.748;7.102;2023-05-13T08:21:59;16.77;;;8.70;;
32445;SDS011;18899;50.748;7.102;2023-05-13T08:24:25;12.85;;;7.25;;
32445;SDS011;18899;50.748;7.102;2023-05-13T08:26:50;10.90;;;7.45;;
32445;SDS011;18899;50.748;7.102;2023-05-13T08:29:16;10.75;;;6.55;;
32445;SDS011;18899;50.748;7.102;2023-05-13T08:31:41;9.65;;;6.13;;
32445;SDS011;18899;50.748;7.102;2023-05-13T08:34:07;7.68;;;5.88;;
32445;SDS011;18899;50.748;7.102;2023-05-13T08:36:33;11.88;;;5.78;;
32445;SDS011;18899;50.748;7.102;2023-05-13T08:38:58;9.25;;;5.32;;
32445;SDS011;18899;50.748;7.102;2023-05-13T08:41:25;9.38;;;5.78;;
32445;SDS011;18899;50.748;7.102;2023-05-13T08:43:51;8.38;;;5.03;;
32445;SDS011;18899;50.748;7.102;2023-05-13T08:46:20;10.15;;;5.68;;
32445;SDS011;18899;50.748;7.102;2023-05-13T08:48:48;6.53;;;4.32;;
32445;SDS011;18899;50.748;7.102;2023-05-13T08:51:14;7.80;;;4.40;;
32445;SDS011;18899;50.748;7.102;2023-05-13T08:53:40;12.88;;;5.07;;
32445;SDS011;18899;50.748;7.102;2023-05-13T08:56:08;9.75;;;4.78;;
32445;SDS011;18899;50.748;7.102;2023-05-13T08:58:34;9.00;;;5.32;;
32445;SDS011;18899;50.748;7.102;2023-05-13T09:01:00;10.13;;;3.90;;
32445;SDS011;18899;50.748;7.102;2023-05-13T09:03:26;6.82;;;3.72;;
32445;SDS011;18899;50.748;7.102;2023-05-13T09:05:52;5.38;;;3.40;;
32445;SDS011;18899;50.748;7.102;2023-05-13T09:08:18;8.73;;;3.65;;
32445;SDS011;18899;50.748;7.102;2023-05-13T09:10:44;5.57;;;3.25;;
32445;SDS011;18899;50.748;7.102;2023-05-13T09:13:12;4.55;;;3.30;;
32445;SDS011;18899;50.748;7.102;2023-05-13T09:15:39;10.50;;;3.75;;
32445;SDS011;18899;50.748;7.102;2023-05-13T09:18:06;10.18;;;4.18;;
32445;SDS011;18899;50.748;7.102;2023-05-13T09:20:32;8.95;;;3.90;;
32445;SDS011;18899;50.748;7.102;2023-05-13T09:25:25;5.80;;;3.33;;
32445;SDS011;18899;50.748;7.102;2023-05-13T09:27:52;9.18;;;3.20;;
32445;SDS011;18899;50.748;7.102;2023-05-13T09:30:25;10.38;;;3.45;;
32445;SDS011;18899;50.748;7.102;2023-05-13T09:35:53;6.85;;;3.20;;
32445;SDS011;18899;50.748;7.102;2023-05-13T09:38:20;6.13;;;3.28;;
32445;SDS011;18899;50.748;7.102;2023-05-13T09:40:59;5.85;;;3.30;;
32445;SDS011;18899;50.748;7.102;2023-05-13T09:43:27;7.32;;;2.97;;
32445;SDS011;18899;50.748;7.102;2023-05-13T09:45:56;6.93;;;3.03;;
32445;SDS011;18899;50.748;7.102;2023-05-13T09:48:25;5.85;;;2.60;;
32445;SDS011;18899;50.748;7.102;2023-05-13T09:50:54;5.03;;;2.63;;
32445;SDS011;18899;50.748;7.102;2023-05-13T09:53:21;5.90;;;2.85;;
32445;SDS011;18899;50.748;7.102;2023-05-13T09:55:49;4.13;;;2.90;;
32445;SDS011;18899;50.748;7.102;2023-05-13T09:58:16;7.65;;;3.08;;
32445;SDS011;18899;50.748;7.102;2023-05-13T10:00:44;4.65;;;2.75;;
32445;SDS011;18899;50.748;7.102;2023-05-13T10:03:11;4.80;;;2.75;;
32445;SDS011;18899;50.748;7.102;2023-05-13T10:05:37;5.97;;;3.05;;
32445;SDS011;18899;50.748;7.102;2023-05-13T10:08:04;4.72;;;2.80;;
32445;SDS011;18899;50.748;7.102;2023-05-13T10:10:32;4.03;;;2.92;;
32445;SDS011;18899;50.748;7.102;2023-05-13T10:13:02;9.95;;;2.95;;
32445;SDS011;18899;50.748;7.102;2023-05-13T10:15:36;7.07;;;2.80;;
32445;SDS011;18899;50.748;7.102;2023-05-13T10:18:26;5.15;;;2.72;;
32445;SDS011;18899;50.748;7.102;2023-05-13T10:20:52;4.05;;;2.60;;
32445;SDS011;18899;50.748;7.102;2023-05-13T10:23:19;5.57;;;3.33;;
32445;SDS011;18899;50.748;7.102;2023-05-13T10:25:52;4.97;;;3.08;;
32445;SDS011;18899;50.748;7.102;2023-05-13T10:28:19;7.43;;;2.72;;
32445;SDS011;18899;50.748;7.102;2023-05-13T10:30:44;8.77;;;2.90;;
32445;SDS011;18899;50.748;7.102;2023-05-13T10:33:10;5.53;;;3.05;;
32445;SDS011;18899;50.748;7.102;2023-05-13T10:35:36;9.50;;;2.97;;
32445;SDS011;18899;50.748;7.102;2023-05-13T10:40:55;5.10;;;2.85;;
32445;SDS011;18899;50.748;7.102;2023-05-13T10:43:36;6.10;;;3.08;;
32445;SDS011;18899;50.748;7.102;2023-05-13T10:46:06;5.40;;;2.90;;
32445;SDS011;18899;50.748;7.102;2023-05-13T10:48:39;5.95;;;3.33;;
32445;SDS011;18899;50.748;7.102;2023-05-13T10:51:15;7.10;;;3.97;;
32445;SDS011;18899;50.748;7.102;2023-05-13T10:53:42;5.38;;;2.33;;
32445;SDS011;18899;50.748;7.102;2023-05-13T10:56:11;6.32;;;1.90;;
32445;SDS011;18899;50.748;7.102;2023-05-13T10:58:37;6.10;;;1.65;;
32445;SDS011;18899;50.748;7.102;2023-05-13T11:03:51;6.10;;;1.83;;
32445;SDS011;18899;50.748;7.102;2023-05-13T11:06:23;4.85;;;2.65;;
32445;SDS011;18899;50.748;7.102;2023-05-13T11:08:53;5.45;;;3.03;;
32445;SDS011;18899;50.748;7.102;2023-05-13T11:13:54;3.35;;;1.98;;
32445;SDS011;18899;50.748;7.102;2023-05-13T11:16:27;6.78;;;2.40;;
32445;SDS011;18899;50.748;7.102;2023-05-13T11:18:53;12.05;;;3.25;;
32445;SDS011;18899;50.748;7.102;2023-05-13T11:21:28;9.55;;;3.22;;
32445;SDS011;18899;50.748;7.102;2023-05-13T11:24:03;15.35;;;3.55;;
32445;SDS011;18899;50.748;7.102;2023-05-13T11:29:39;8.52;;;2.97;;
32445;SDS011;18899;50.748;7.102;2023-05-13T11:32:14;9.38;;;3.92;;
32445;SDS011;18899;50.748;7.102;2023-05-13T11:35:00;9.55;;;4.40;;
32445;SDS011;18899;50.748;7.102;2023-05-13T11:37:27;9.00;;;4.28;;
32445;SDS011;18899;50.748;7.102;2023-05-13T11:39:56;8.23;;;4.90;;
32445;SDS011;18899;50.748;7.102;2023-05-13T11:42:23;7.60;;;4.80;;
32445;SDS011;18899;50.748;7.102;2023-05-13T11:44:49;8.73;;;4.70;;
32445;SDS011;18899;50.748;7.102;2023-05-13T11:47:24;9.68;;;5.13;;
32445;SDS011;18899;50.748;7.102;2023-05-13T11:49:51;9.25;;;4.93;;
32445;SDS011;18899;50.748;7.102;2023-05-13T11:52:17;8.45;;;5.00;;
32445;SDS011;18899;50.748;7.102;2023-05-13T11:54:53;9.90;;;5.47;;
32445;SDS011;18899;50.748;7.102;2023-05-13T11:57:20;10.18;;;5.70;;
32445;SDS011;18899;50.748;7.102;2023-05-13T11:59:49;7.97;;;5.20;;
32445;SDS011;18899;50.748;7.102;2023-05-13T12:02:19;10.68;;;5.80;;
32445;SDS011;18899;50.748;7.102;2023-05-13T12:04:55;8.23;;;5.15;;
32445;SDS011;18899;50.748;7.102;2023-05-13T12:07:25;8.75;;;5.10;;
32445;SDS011;18899;50.748;7.102;2023-05-13T12:09:52;7.03;;;5.10;;
32445;SDS011;18899;50.748;7.102;2023-05-13T12:12:20;9.18;;;5.10;;
32445;SDS011;18899;50.748;7.102;2023-05-13T12:14:46;9.27;;;4.47;;
32445;SDS011;18899;50.748;7.102;2023-05-13T12:17:17;9.38;;;4.75;;
32445;SDS011;18899;50.748;7.102;2023-05-13T12:22:31;12.13;;;4.30;;
32445;SDS011;18899;50.748;7.102;2023-05-13T12:24:57;6.57;;;3.80;;
32445;SDS011;18899;50.748;7.102;2023-05-13T12:27:25;5.63;;;3.88;;
32445;SDS011;18899;50.748;7.102;2023-05-13T12:29:54;5.97;;;3.70;;
32445;SDS011;18899;50.748;7.102;2023-05-13T12:32:20;10.23;;;4.30;;
32445;SDS011;18899;50.748;7.102;2023-05-13T12:34:48;7.85;;;4.20;;
32445;SDS011;18899;50.748;7.102;2023-05-13T12:37:14;5.63;;;3.85;;
32445;SDS011;18899;50.748;7.102;2023-05-13T12:39:40;5.70;;;3.80;;
32445;SDS011;18899;50.748;7.102;2023-05-13T12:42:16;10.85;;;4.07;;
32445;SDS011;18899;50.748;7.102;2023-05-13T12:44:45;6.22;;;3.72;;
32445;SDS011;18899;50.748;7.102;2023-05-13T12:47:12;9.15;;;3.75;;
32445;SDS011;18899;50.748;7.102;2023-05-13T12:49:52;5.43;;;3.53;;
32445;SDS011;18899;50.748;7.102;2023-05-13T12:52:19;8.75;;;3.72;;
32445;SDS011;18899;50.748;7.102;2023-05-13T12:54:45;6.28;;;3.50;;
32445;SDS011;18899;50.748;7.102;2023-05-13T12:57:14;7.18;;;3.28;;
32445;SDS011;18899;50.748;7.102;2023-05-13T12:59:41;5.43;;;3.40;;
32445;SDS011;18899;50.748;7.102;2023-05-13T13:02:06;5.20;;;3.33;;
32445;SDS011;18899;50.748;7.102;2023-05-13T13:04:32;4.43;;;3.15;;
32445;SDS011;18899;50.748;7.102;2023-05-13T13:06:57;5.07;;;2.60;;
32445;SDS011;18899;50.748;7.102;2023-05-13T13:09:23;5.50;;;3.05;;
32445;SDS011;18899;50.748;7.102;2023-05-13T13:11:48;9.52;;;3.00;;
32445;SDS011;18899;50.748;7.102;2023-05-13T13:14:14;6.22;;;3.17;;
32445;SDS011;18899;50.748;7.102;2023-05-13T13:16:39;4.80;;;3.08;;
32445;SDS011;18899;50.748;7.102;2023-05-13T13:19:05;4.97;;;2.80;;
32445;SDS011;18899;50.748;7.102;2023-05-13T13:21:30;4.57;;;3.30;;
32445;SDS011;18899;50.748;7.102;2023-05-13T13:23:56;3.47;;;2.70;;
32445;SDS011;18899;50.748;7.102;2023-05-13T13:26:21;11.75;;;2.67;;
32445;SDS011;18899;50.748;7.102;2023-05-13T13:28:47;5.90;;;3.42;;
32445;SDS011;18899;50.748;7.102;2023-05-13T13:31:13;7.25;;;2.95;;
32445;SDS011;18899;50.748;7.102;2023-05-13T13:33:38;5.97;;;3.05;;
32445;SDS011;18899;50.748;7.102;2023-05-13T13:36:04;5.45;;;3.00;;
32445;SDS011;18899;50.748;7.102;2023-05-13T13:38:30;5.88;;;2.80;;
32445;SDS011;18899;50.748;7.102;2023-05-13T13:40:55;4.65;;;2.80;;
32445;SDS011;18899;50.748;7.102;2023-05-13T13:43:21;4.32;;;2.95;;
32445;SDS011;18899;50.748;7.102;2023-05-13T13:45:46;2.83;;;2.30;;
32445;SDS011;18899;50.748;7.102;2023-05-13T13:48:12;7.05;;;3.03;;
32445;SDS011;18899;50.748;7.102;2023-05-13T13:50:37;4.55;;;2.53;;
32445;SDS011;18899;50.748;7.102;2023-05-13T13:53:03;7.20;;;2.40;;
32445;SDS011;18899;50.748;7.102;2023-05-13T13:55:29;7.93;;;2.42;;
32445;SDS011;18899;50.748;7.102;2023-05-13T13:57:54;4.15;;;2.30;;
32445;SDS011;18899;50.748;7.102;2023-05-13T14:00:20;3.58;;;2.35;;
32445;SDS011;18899;50.748;7.102;2023-05-13T14:02:45;4.13;;;2.63;;
32445;SDS011;18899;50.748;7.102;2023-05-13T14:05:11;3.42;;;2.33;;
32445;SDS011;18899;50.748;7.102;2023-05-13T14:07:37;3.88;;;2.50;;
32445;SDS011;18899;50.748;7.102;2023-05-13T14:10:03;8.50;;;2.60;;
32445;SDS011;18899;50.748;7.102;2023-05-13T14:12:29;4.63;;;2.58;;
32445;SDS011;18899;50.748;7.102;2023-05-13T14:14:55;3.70;;;2.60;;
32445;SDS011;18899;50.748;7.102;2023-05-13T14:17:21;6.07;;;2.58;;
32445;SDS011;18899;50.748;7.102;2023-05-13T14:19:46;5.07;;;2.95;;
32445;SDS011;18899;50.748;7.102;2023-05-13T14:22:15;3.55;;;2.80;;
32445;SDS011;18899;50.748;7.102;2023-05-13T14:24:41;5.80;;;3.15;;
32445;SDS011;18899;50.748;7.102;2023-05-13T14:27:07;7.43;;;3.08;;
32445;SDS011;18899;50.748;7.102;2023-05-13T14:29:33;3.90;;;2.65;;
32445;SDS011;18899;50.748;7.102;2023-05-13T14:31:58;5.35;;;2.88;;
32445;SDS011;18899;50.748;7.102;2023-05-13T14:34:25;6.30;;;2.78;;
32445;SDS011;18899;50.748;7.102;2023-05-13T14:36:51;4.35;;;2.70;;
32445;SDS011;18899;50.748;7.102;2023-05-13T14:39:16;4.28;;;2.67;;
32445;SDS011;18899;50.748;7.102;2023-05-13T14:41:42;5.65;;;2.53;;
32445;SDS011;18899;50.748;7.102;2023-05-13T14:44:10;4.38;;;2.53;;
32445;SDS011;18899;50.748;7.102;2023-05-13T14:46:36;2.88;;;2.30;;
32445;SDS011;18899;50.748;7.102;2023-05-13T14:49:03;6.25;;;2.38;;
32445;SDS011;18899;50.748;7.102;2023-05-13T14:51:29;4.60;;;2.58;;
32445;SDS011;18899;50.748;7.102;2023-05-13T14:53:55;3.13;;;1.92;;
32445;SDS011;18899;50.748;7.102;2023-05-13T14:56:20;8.48;;;2.63;;
32445;SDS011;18899;50.748;7.102;2023-05-13T14:58:46;2.88;;;1.80;;
32445;SDS011;18899;50.748;7.102;2023-05-13T15:01:11;2.97;;;1.65;;
32445;SDS011;18899;50.748;7.102;2023-05-13T15:03:37;4.43;;;2.50;;